Geffen, Netherlands
Current Conditions -  °F | °C
As of 4:55 AM on Monday 24 Nov 2014 (Local Time) from EHVK Reporting Station
Drizzle Drizzle  
Wind Chill: 46°   Ceiling: 600
Heat Index: 48°   Visibility: 2.6mi
Dew Point: 46°   Wind: 6mph
Humidity: 93%   Direction: 310°NW
Pressure: 30.12"   Gusts: NA
Location:  51.74°N, 5.46°E
Report Text: EHVK 240355Z AUTO 31005KT 4300 DZ SCT004 BKN006 OVC007 09/08 Q1020 YLO
Loading
Personal Weather Stations






























Interactive Weather Map New forecast layout! Learn more

10-Day Weather Forecast

Advertisements
Track Severe Weather on mobile